Time;durP1;ratioP1;P1;durP2;ratioP2;P2;SDS_P1;SDS_P2;PMS_P1;PMS_P2;Temp;Humidity;BMP_temperature;BMP_pressure;BME280_temperature;BME280_humidity;BME280_pressure;Samples;Min_cycle;Max_cycle;Signal;HPM_P1;HPM_P2
2023/09/02 03:00:43;;;;;;;;;;;22.10;58.70;;;;;;5969851;23;46419;-86
2023/09/02 03:03:09;;;;;;;;;;;22.10;58.80;;;;;;4823928;29;51855;-82
2023/09/02 03:05:36;;;;;;;;;;;22.10;58.70;;;;;;4853777;29;45433;-82
2023/09/02 03:08:02;;;;;;;;;;;22.10;58.70;;;;;;4871642;29;45075;-79
2023/09/02 03:10:28;;;;;;;;;;;22.10;58.80;;;;;;4861511;29;45553;-80
2023/09/02 03:12:54;;;;;;;;;;;22.10;58.70;;;;;;4871558;29;47078;-80
2023/09/02 03:15:20;;;;;;;;;;;22.10;58.70;;;;;;4860380;29;45266;-80
2023/09/02 03:17:45;;;;;;;;;;;22.10;58.70;;;;;;4854651;29;45441;-78
2023/09/02 03:20:11;;;;;;;;;;;22.10;58.70;;;;;;4852018;29;45753;-80
2023/09/02 03:22:39;;;;;;;;;;;22.10;58.70;;;;;;4846837;29;45949;-81
2023/09/02 03:25:05;;;;;;;;;;;22.10;58.70;;;;;;4860756;29;45502;-81
2023/09/02 03:27:30;;;;;;;;;;;22.10;58.70;;;;;;4849090;29;45100;-80
2023/09/02 03:29:56;;;;;;;;;;;22.10;58.70;;;;;;4880208;29;45402;-80
2023/09/02 03:32:26;;;;;;;;;;;22.10;58.70;;;;;;4859629;29;45942;-78
2023/09/02 03:34:51;;;;;;;;;;;22.10;58.70;;;;;;4874201;29;45279;-78
2023/09/02 03:37:17;;;;;;;;;;;22.10;58.70;;;;;;4857942;29;45157;-80
2023/09/02 03:39:42;;;;;;;;;;;22.10;58.70;;;;;;4831875;29;45587;-78
2023/09/02 03:42:08;;;;;;;;;;;22.10;58.70;;;;;;4853484;29;45899;-81
2023/09/02 03:44:33;;;;;;;;;;;22.20;58.70;;;;;;4874622;29;45234;-80
2023/09/02 03:46:59;;;;;;;;;;;22.10;58.70;;;;;;4844818;29;45440;-78
2023/09/02 03:49:25;;;;;;;;;;;22.10;58.70;;;;;;4868984;29;45163;-80
2023/09/02 03:51:51;;;;;;;;;;;22.10;58.70;;;;;;4865377;29;45715;-78
2023/09/02 03:54:16;;;;;;;;;;;22.10;58.70;;;;;;4863701;29;44967;-80
2023/09/02 03:56:42;;;;;;;;;;;22.10;58.70;;;;;;4878518;29;45247;-79
2023/09/02 03:59:08;;;;;;;;;;;22.10;58.70;;;;;;4880043;29;45429;-81
2023/09/02 04:01:34;;;;;;;;;;;22.10;58.70;;;;;;4868774;29;45124;-78
2023/09/02 04:03:59;;;;;;;;;;;22.10;58.70;;;;;;4884415;29;45501;-78
2023/09/02 04:06:26;;;;;;;;;;;22.10;58.70;;;;;;4868483;29;45043;-79
2023/09/02 04:08:52;;;;;;;;;;;22.10;58.70;;;;;;4854317;29;45868;-80
2023/09/02 04:11:19;;;;;;;;;;;22.10;58.70;;;;;;4870772;29;45359;-81
2023/09/02 04:13:44;;;;;;;;;;;22.10;58.70;;;;;;4857767;29;45063;-79
2023/09/02 04:16:10;;;;;;;;;;;22.10;58.70;;;;;;4879518;29;45348;-81
2023/09/02 04:18:36;;;;;;;;;;;22.10;58.60;;;;;;4890021;29;45165;-79
2023/09/02 04:21:03;;;;;;;;;;;22.10;58.60;;;;;;4872919;29;45619;-83
2023/09/02 04:23:29;;;;;;;;;;;22.10;58.60;;;;;;4887245;29;44947;-78
2023/09/02 04:25:56;;;;;;;;;;;22.10;58.60;;;;;;4869011;29;46254;-77
2023/09/02 04:28:21;;;;;;;;;;;22.10;58.70;;;;;;4857392;29;45001;-80
2023/09/02 04:30:47;;;;;;;;;;;22.10;58.70;;;;;;4854070;29;45467;-79
2023/09/02 04:33:12;;;;;;;;;;;22.10;58.60;;;;;;4887078;29;45298;-79
2023/09/02 04:35:38;;;;;;;;;;;22.10;58.60;;;;;;4842015;29;45421;-81
2023/09/02 04:38:04;;;;;;;;;;;22.10;58.60;;;;;;4899820;29;45324;-83
2023/09/02 04:40:31;;;;;;;;;;;22.00;58.60;;;;;;4854391;29;45492;-78
2023/09/02 04:42:56;;;;;;;;;;;22.10;58.60;;;;;;4868095;29;45453;-78
2023/09/02 04:45:22;;;;;;;;;;;22.00;58.60;;;;;;4894821;28;45531;-78
2023/09/02 04:47:48;;;;;;;;;;;22.10;58.60;;;;;;4871376;29;45381;-85
2023/09/02 04:50:13;;;;;;;;;;;22.10;58.60;;;;;;4885385;29;45403;-82
2023/09/02 04:52:39;;;;;;;;;;;22.10;58.60;;;;;;4872919;29;45555;-81
2023/09/02 04:55:05;;;;;;;;;;;22.10;58.60;;;;;;4870694;29;45368;-81
2023/09/02 04:57:34;;;;;;;;;;;22.00;58.60;;;;;;4908301;28;44870;-78
2023/09/02 05:00:07;;;;;;;;;;;22.10;58.60;;;;;;4897166;29;46697;-79
2023/09/02 05:02:33;;;;;;;;;;;22.00;58.60;;;;;;4851319;29;45675;-79
2023/09/02 05:04:58;;;;;;;;;;;22.00;58.60;;;;;;4854193;29;45135;-79
2023/09/02 05:07:25;;;;;;;;;;;22.00;58.60;;;;;;4867780;29;45247;-78
2023/09/02 05:09:51;;;;;;;;;;;22.10;58.70;;;;;;4866296;29;46066;-80
2023/09/02 05:12:16;;;;;;;;;;;22.10;58.60;;;;;;4878083;29;45285;-79
2023/09/02 05:14:42;;;;;;;;;;;22.00;58.60;;;;;;4856955;29;45277;-80
2023/09/02 05:17:07;;;;;;;;;;;22.00;58.60;;;;;;4873417;29;45634;-78
2023/09/02 05:19:33;;;;;;;;;;;22.00;58.60;;;;;;4852676;29;46315;-77
2023/09/02 05:21:59;;;;;;;;;;;22.00;58.60;;;;;;4850486;29;45494;-78
2023/09/02 05:24:24;;;;;;;;;;;22.00;58.60;;;;;;4849428;29;44726;-79
2023/09/02 05:26:50;;;;;;;;;;;22.00;58.60;;;;;;4831058;29;45180;-78
2023/09/02 05:29:16;;;;;;;;;;;22.00;58.60;;;;;;4840131;29;46699;-82
2023/09/02 05:31:41;;;;;;;;;;;22.00;58.60;;;;;;4830658;29;45274;-83
2023/09/02 05:34:07;;;;;;;;;;;22.00;58.60;;;;;;4857661;29;45495;-80
2023/09/02 05:36:32;;;;;;;;;;;22.00;58.60;;;;;;4857251;29;46052;-84
2023/09/02 05:38:58;;;;;;;;;;;22.00;58.60;;;;;;4854734;29;48253;-81
2023/09/02 05:41:24;;;;;;;;;;;22.00;58.60;;;;;;4852095;29;44632;-79
2023/09/02 05:43:50;;;;;;;;;;;22.00;59.10;;;;;;4869188;29;45493;-79
2023/09/02 05:46:15;;;;;;;;;;;22.00;58.60;;;;;;4837944;29;46405;-79
2023/09/02 05:48:42;;;;;;;;;;;22.00;58.60;;;;;;4840097;29;46469;-79
2023/09/02 05:51:07;;;;;;;;;;;22.00;58.60;;;;;;4863398;29;44712;-84
2023/09/02 05:53:33;;;;;;;;;;;22.00;58.60;;;;;;4869008;29;45533;-81
2023/09/02 05:55:59;;;;;;;;;;;22.00;58.60;;;;;;4866187;29;44816;-78
2023/09/02 05:58:28;;;;;;;;;;;22.00;58.50;;;;;;4866936;29;45406;-79
2023/09/02 06:00:53;;;;;;;;;;;22.00;58.60;;;;;;4832098;29;45372;-80
2023/09/02 06:03:19;;;;;;;;;;;22.00;58.50;;;;;;4894645;29;45215;-79
2023/09/02 06:05:44;;;;;;;;;;;22.00;58.60;;;;;;4869343;29;45385;-82
2023/09/02 06:08:10;;;;;;;;;;;22.00;58.60;;;;;;4897131;29;45601;-78
2023/09/02 06:10:35;;;;;;;;;;;22.00;58.60;;;;;;4851105;29;44844;-81
2023/09/02 06:13:01;;;;;;;;;;;22.00;58.60;;;;;;4870708;29;45195;-80
2023/09/02 06:15:29;;;;;;;;;;;22.00;58.60;;;;;;4884415;29;45209;-81
2023/09/02 06:17:54;;;;;;;;;;;22.00;58.60;;;;;;4898513;28;45544;-82
2023/09/02 06:20:22;;;;;;;;;;;22.00;58.50;;;;;;4870467;29;45358;-84
2023/09/02 06:22:50;;;;;;;;;;;22.00;58.60;;;;;;4870532;29;45088;-80
2023/09/02 06:25:15;;;;;;;;;;;22.00;58.60;;;;;;4854201;29;45417;-80
2023/09/02 06:27:41;;;;;;;;;;;22.00;58.60;;;;;;4858173;29;46079;-81
2023/09/02 06:30:11;;;;;;;;;;;22.00;58.60;;;;;;4865739;29;45139;-84
2023/09/02 06:32:37;;;;;;;;;;;22.00;58.60;;;;;;4880780;29;45241;-82
2023/09/02 06:35:05;;;;;;;;;;;22.00;58.60;;;;;;4886670;29;45100;-86
2023/09/02 06:37:30;;;;;;;;;;;22.00;58.60;;;;;;4860090;29;45671;-80
2023/09/02 06:39:56;;;;;;;;;;;22.00;58.60;;;;;;4857607;29;45716;-79
2023/09/02 06:42:22;;;;;;;;;;;22.00;58.60;;;;;;4887852;29;45229;-81
2023/09/02 06:44:51;;;;;;;;;;;22.00;58.60;;;;;;4884384;29;45556;-84
2023/09/02 06:47:17;;;;;;;;;;;22.00;58.60;;;;;;4875216;29;47538;-81
2023/09/02 06:49:43;;;;;;;;;;;22.00;58.50;;;;;;4851289;29;45382;-79
2023/09/02 06:52:08;;;;;;;;;;;22.00;58.60;;;;;;4885389;29;45212;-80
2023/09/02 06:54:34;;;;;;;;;;;22.00;58.60;;;;;;4887474;29;45222;-83
2023/09/02 06:57:00;;;;;;;;;;;22.00;59.20;;;;;;4895621;29;46500;-81
2023/09/02 06:59:26;;;;;;;;;;;22.00;58.60;;;;;;4888328;29;45383;-83
2023/09/02 07:01:52;;;;;;;;;;;22.00;58.60;;;;;;4884483;29;45497;-79
2023/09/02 07:04:18;;;;;;;;;;;22.00;58.50;;;;;;4882534;29;45313;-80
2023/09/02 07:06:43;;;;;;;;;;;22.00;58.50;;;;;;4859623;29;46301;-85
2023/09/02 07:09:10;;;;;;;;;;;22.00;58.60;;;;;;4873171;29;45236;-83
2023/09/02 07:11:36;;;;;;;;;;;22.00;58.60;;;;;;4870961;29;45132;-80
2023/09/02 07:14:02;;;;;;;;;;;22.00;58.60;;;;;;4856520;29;45433;-83
2023/09/02 07:16:27;;;;;;;;;;;22.00;58.60;;;;;;4878945;29;46008;-87
2023/09/02 07:18:53;;;;;;;;;;;22.00;58.60;;;;;;4858114;29;44957;-79
2023/09/02 07:21:22;;;;;;;;;;;22.00;58.60;;;;;;4867386;29;45489;-80
2023/09/02 07:23:50;;;;;;;;;;;22.00;58.60;;;;;;4853440;29;45252;-78
2023/09/02 07:26:15;;;;;;;;;;;22.00;58.60;;;;;;4867802;29;45966;-80
2023/09/02 07:28:42;;;;;;;;;;;22.00;58.60;;;;;;4875029;29;45018;-80
2023/09/02 07:31:08;;;;;;;;;;;22.00;58.60;;;;;;4876306;29;45412;-78
2023/09/02 07:33:34;;;;;;;;;;;22.00;58.60;;;;;;4885475;29;45053;-80
2023/09/02 07:36:19;;;;;;;;;;;22.00;58.60;;;;;;4877002;29;45948;-79
2023/09/02 07:38:45;;;;;;;;;;;22.00;58.60;;;;;;4883897;29;45507;-79
2023/09/02 07:41:10;;;;;;;;;;;22.00;58.60;;;;;;4880483;29;45219;-80
2023/09/02 07:43:36;;;;;;;;;;;22.00;58.60;;;;;;4887087;29;45713;-79
2023/09/02 07:46:01;;;;;;;;;;;22.00;58.60;;;;;;4835443;29;45552;-79
2023/09/02 07:48:27;;;;;;;;;;;22.00;58.60;;;;;;4898653;29;45234;-80
2023/09/02 07:50:53;;;;;;;;;;;22.00;58.60;;;;;;4867143;29;45357;-81
2023/09/02 07:53:19;;;;;;;;;;;22.00;58.60;;;;;;4885878;29;45866;-83
2023/09/02 07:55:44;;;;;;;;;;;22.00;58.60;;;;;;4889729;29;45152;-82
2023/09/02 07:58:10;;;;;;;;;;;22.00;58.60;;;;;;4898587;29;45481;-78
2023/09/02 08:00:36;;;;;;;;;;;22.00;58.60;;;;;;4880862;29;45262;-78
2023/09/02 08:03:02;;;;;;;;;;;22.00;58.60;;;;;;4839768;29;45003;-79
2023/09/02 08:05:27;;;;;;;;;;;22.00;58.60;;;;;;4883735;29;45358;-84
2023/09/02 08:07:53;;;;;;;;;;;22.00;58.60;;;;;;4885266;29;45059;-82
2023/09/02 08:10:19;;;;;;;;;;;22.00;58.60;;;;;;4857469;29;45083;-84
2023/09/02 08:12:45;;;;;;;;;;;22.00;58.60;;;;;;4892549;28;46006;-81
2023/09/02 08:15:11;;;;;;;;;;;22.00;58.60;;;;;;4879835;29;45531;-80
2023/09/02 08:17:38;;;;;;;;;;;22.00;58.60;;;;;;4851757;29;45954;-79
2023/09/02 08:20:04;;;;;;;;;;;22.00;58.60;;;;;;4896312;29;45281;-82
2023/09/02 08:22:30;;;;;;;;;;;22.00;58.70;;;;;;4870685;29;45573;-80
2023/09/02 08:24:56;;;;;;;;;;;22.00;58.60;;;;;;4870715;29;45876;-78
2023/09/02 08:27:22;;;;;;;;;;;22.00;58.60;;;;;;4879819;29;45273;-80
2023/09/02 08:29:48;;;;;;;;;;;22.00;58.70;;;;;;4886564;29;45263;-85
2023/09/02 08:32:14;;;;;;;;;;;22.00;58.70;;;;;;4878564;29;45419;-79
2023/09/02 08:34:39;;;;;;;;;;;22.00;58.60;;;;;;4874274;29;46273;-79
2023/09/02 08:37:05;;;;;;;;;;;22.00;58.70;;;;;;4882766;29;45206;-81
2023/09/02 08:39:31;;;;;;;;;;;22.00;58.60;;;;;;4868591;29;45923;-79
2023/09/02 08:41:57;;;;;;;;;;;22.00;58.60;;;;;;4882047;29;44679;-82
2023/09/02 08:44:24;;;;;;;;;;;22.00;58.60;;;;;;4884078;29;46292;-78
2023/09/02 08:46:51;;;;;;;;;;;22.00;58.60;;;;;;4869898;29;44888;-81
2023/09/02 08:49:16;;;;;;;;;;;22.00;58.60;;;;;;4890454;29;45134;-82
2023/09/02 08:51:41;;;;;;;;;;;22.00;58.70;;;;;;4856159;29;45187;-79
2023/09/02 08:54:07;;;;;;;;;;;22.00;58.60;;;;;;4841282;29;45941;-79
2023/09/02 08:56:33;;;;;;;;;;;22.00;58.60;;;;;;4868242;29;44690;-81
2023/09/02 08:58:58;;;;;;;;;;;22.00;58.70;;;;;;4873331;29;45233;-80
2023/09/02 09:01:24;;;;;;;;;;;22.00;58.60;;;;;;4880811;29;45103;-79
2023/09/02 09:04:12;;;;;;;;;;;22.00;58.70;;;;;;4872491;29;45997;-80
2023/09/02 09:06:38;;;;;;;;;;;22.00;58.70;;;;;;4867864;29;45275;-80
2023/09/02 09:09:04;;;;;;;;;;;22.00;58.70;;;;;;4887035;29;45992;-80
2023/09/02 09:11:30;;;;;;;;;;;22.00;58.60;;;;;;4871244;29;44912;-80
2023/09/02 09:13:56;;;;;;;;;;;22.00;58.60;;;;;;4883097;29;45377;-80
2023/09/02 09:16:23;;;;;;;;;;;22.00;58.70;;;;;;4891993;28;44730;-81
2023/09/02 09:18:50;;;;;;;;;;;22.00;58.60;;;;;;4853386;29;45584;-79
2023/09/02 09:21:15;;;;;;;;;;;22.00;58.70;;;;;;4854043;29;45442;-82
2023/09/02 09:23:41;;;;;;;;;;;22.00;58.60;;;;;;4873386;29;45906;-80
2023/09/02 09:26:07;;;;;;;;;;;22.00;58.70;;;;;;4867627;29;45467;-80
2023/09/02 09:28:52;;;;;;;;;;;22.00;58.70;;;;;;4872866;29;45624;-80
2023/09/02 09:31:18;;;;;;;;;;;22.00;58.70;;;;;;4875840;29;45190;-82
2023/09/02 09:33:58;;;;;;;;;;;22.00;58.70;;;;;;4868136;29;45515;-81
2023/09/02 09:36:24;;;;;;;;;;;22.00;58.70;;;;;;4883673;29;45339;-79
2023/09/02 09:38:52;;;;;;;;;;;22.00;58.70;;;;;;4868854;29;45825;-79
2023/09/02 09:41:18;;;;;;;;;;;22.00;58.70;;;;;;4859105;29;45299;-82
2023/09/02 09:43:43;;;;;;;;;;;22.00;58.70;;;;;;4887677;29;45454;-81
2023/09/02 09:46:12;;;;;;;;;;;22.00;58.70;;;;;;4885724;29;45198;-80
2023/09/02 09:48:44;;;;;;;;;;;22.00;58.70;;;;;;4870485;29;45188;-80
2023/09/02 09:51:20;;;;;;;;;;;22.00;58.70;;;;;;4884479;29;45845;-79
2023/09/02 09:53:46;;;;;;;;;;;22.00;58.70;;;;;;4888167;29;46258;-80
2023/09/02 09:56:11;;;;;;;;;;;22.00;58.70;;;;;;4868485;29;45200;-79
2023/09/02 09:58:37;;;;;;;;;;;22.00;58.70;;;;;;4872515;29;45406;-80
2023/09/02 10:01:03;;;;;;;;;;;22.00;58.70;;;;;;4864039;29;45557;-81
2023/09/02 10:03:29;;;;;;;;;;;22.00;58.70;;;;;;4881885;29;46265;-80
2023/09/02 10:05:58;;;;;;;;;;;22.00;58.70;;;;;;4866272;23;45138;-46
2023/09/02 10:08:24;;;;;;;;;;;22.00;58.70;;;;;;4818951;29;45522;-45
2023/09/02 10:10:49;;;;;;;;;;;22.00;58.70;;;;;;4823774;29;46197;-45
2023/09/02 10:13:15;;;;;;;;;;;22.00;58.70;;;;;;4831392;29;45253;-46
2023/09/02 10:15:40;;;;;;;;;;;22.00;58.70;;;;;;4797530;29;45287;-45
2023/09/02 10:18:06;;;;;;;;;;;22.10;58.70;;;;;;4824469;29;46243;-45
2023/09/02 10:20:32;;;;;;;;;;;22.10;58.70;;;;;;4823664;29;45686;-45
2023/09/02 10:23:03;;;;;;;;;;;22.10;58.70;;;;;;4831221;29;48440;-46
2023/09/02 10:25:29;;;;;;;;;;;22.10;58.70;;;;;;4827238;29;46114;-46
2023/09/02 10:27:57;;;;;;;;;;;22.10;58.70;;;;;;4824258;29;45947;-47
2023/09/02 10:30:30;;;;;;;;;;;22.10;58.70;;;;;;4823150;29;45474;-45
2023/09/02 10:32:59;;;;;;;;;;;22.10;58.70;;;;;;4824890;29;45635;-47
2023/09/02 10:35:24;;;;;;;;;;;22.10;58.70;;;;;;4805320;29;45772;-47
2023/09/02 10:37:54;;;;;;;;;;;22.10;58.70;;;;;;4817563;29;44781;-48
2023/09/02 10:40:20;;;;;;;;;;;22.10;58.70;;;;;;4826578;29;45089;-46
2023/09/02 10:42:45;;;;;;;;;;;22.10;58.70;;;;;;4831513;29;45323;-46
2023/09/02 10:45:11;;;;;;;;;;;22.10;58.70;;;;;;4821517;29;46546;-47
2023/09/02 10:47:36;;;;;;;;;;;22.10;58.60;;;;;;4809929;29;45840;-46
2023/09/02 10:50:04;;;;;;;;;;;22.10;58.60;;;;;;4828810;29;46807;-46
2023/09/02 10:52:29;;;;;;;;;;;22.20;58.80;;;;;;4827365;29;45960;-46
2023/09/02 10:55:05;;;;;;;;;;;22.20;58.70;;;;;;4832921;29;45144;-46
2023/09/02 10:57:30;;;;;;;;;;;22.20;58.70;;;;;;4814019;29;46878;-47
2023/09/02 11:00:12;;;;;;;;;;;22.10;58.60;;;;;;4815841;29;44983;-46
2023/09/02 11:02:39;;;;;;;;;;;22.10;58.60;;;;;;4805796;29;46768;-46
2023/09/02 11:05:05;;;;;;;;;;;22.20;58.70;;;;;;4790414;29;45718;-46
2023/09/02 11:07:31;;;;;;;;;;;22.20;58.70;;;;;;4815502;29;44780;-45
2023/09/02 11:09:57;;;;;;;;;;;22.20;58.70;;;;;;4832632;29;45193;-47
2023/09/02 11:12:23;;;;;;;;;;;22.20;58.70;;;;;;4824049;29;45363;-46
2023/09/02 11:15:07;;;;;;;;;;;22.20;58.70;;;;;;4851952;29;46893;-47
2023/09/02 11:17:33;;;;;;;;;;;22.20;58.70;;;;;;4841324;29;45454;-47
2023/09/02 11:20:00;;;;;;;;;;;22.20;58.70;;;;;;4851113;29;45956;-46
2023/09/02 11:22:44;;;;;;;;;;;22.20;58.70;;;;;;4837630;29;46578;-46
2023/09/02 11:25:10;;;;;;;;;;;22.20;58.70;;;;;;4847336;29;45762;-46
2023/09/02 11:27:45;;;;;;;;;;;22.20;58.70;;;;;;4849452;29;46370;-46
2023/09/02 11:30:11;;;;;;;;;;;22.20;58.70;;;;;;4811925;29;45394;-49
2023/09/02 11:32:46;;;;;;;;;;;22.20;58.70;;;;;;4841462;29;47135;-46
2023/09/02 11:35:11;;;;;;;;;;;22.20;58.70;;;;;;4834677;29;44929;-47
2023/09/02 11:37:37;;;;;;;;;;;22.20;58.70;;;;;;4828238;29;45529;-47
2023/09/02 11:40:18;;;;;;;;;;;22.20;58.70;;;;;;4842950;29;45616;-51
2023/09/02 11:42:53;;;;;;;;;;;22.20;58.70;;;;;;4829305;29;45874;-48
2023/09/02 11:45:18;;;;;;;;;;;22.20;58.70;;;;;;4838411;29;45868;-46
2023/09/02 11:47:44;;;;;;;;;;;22.20;58.70;;;;;;4828823;29;45384;-46
2023/09/02 11:50:17;;;;;;;;;;;22.20;58.80;;;;;;4820125;29;46277;-47
2023/09/02 11:52:42;;;;;;;;;;;22.20;58.80;;;;;;4847597;29;45568;-47
2023/09/02 11:55:08;;;;;;;;;;;22.20;58.70;;;;;;4824775;29;45359;-46
2023/09/02 11:57:34;;;;;;;;;;;22.20;58.70;;;;;;4853981;29;45474;-46
2023/09/02 11:59:59;;;;;;;;;;;22.20;58.70;;;;;;4856798;29;45500;-46
2023/09/02 12:02:25;;;;;;;;;;;22.20;58.80;;;;;;4831970;29;46141;-45
2023/09/02 12:04:51;;;;;;;;;;;22.20;58.80;;;;;;4852011;29;45505;-47
2023/09/02 12:07:16;;;;;;;;;;;22.20;58.70;;;;;;4847222;29;45950;-46
2023/09/02 12:09:42;;;;;;;;;;;22.20;58.70;;;;;;4834623;29;44957;-45
2023/09/02 12:12:07;;;;;;;;;;;22.30;58.80;;;;;;4820608;29;45339;-46
2023/09/02 12:14:35;;;;;;;;;;;22.20;58.70;;;;;;4836760;29;45317;-46
2023/09/02 12:17:00;;;;;;;;;;;22.30;58.80;;;;;;4828969;29;45540;-47
2023/09/02 12:19:26;;;;;;;;;;;22.30;58.80;;;;;;4841081;29;45719;-46
2023/09/02 12:21:51;;;;;;;;;;;22.30;58.80;;;;;;4836803;29;46118;-45
2023/09/02 12:24:17;;;;;;;;;;;22.30;58.80;;;;;;4854301;29;45484;-46
2023/09/02 12:26:46;;;;;;;;;;;22.20;58.80;;;;;;4828225;29;45294;-47
2023/09/02 12:29:18;;;;;;;;;;;22.30;58.80;;;;;;4847727;29;45471;-46
2023/09/02 12:31:51;;;;;;;;;;;22.30;58.80;;;;;;4827764;29;45855;-46
2023/09/02 12:34:17;;;;;;;;;;;22.30;58.90;;;;;;4832508;29;46667;-45
2023/09/02 12:36:42;;;;;;;;;;;22.30;58.80;;;;;;4855277;29;45256;-47
2023/09/02 12:39:08;;;;;;;;;;;22.30;58.80;;;;;;4850452;29;45118;-48
2023/09/02 12:41:37;;;;;;;;;;;22.30;58.80;;;;;;4820722;29;46245;-46
2023/09/02 12:44:13;;;;;;;;;;;22.20;58.80;;;;;;4837953;29;45537;-46
2023/09/02 12:46:38;;;;;;;;;;;22.30;58.80;;;;;;4844150;29;45431;-46
2023/09/02 12:49:04;;;;;;;;;;;22.20;58.80;;;;;;4857185;29;45585;-46
2023/09/02 12:51:30;;;;;;;;;;;22.30;58.80;;;;;;4842940;29;45326;-45
2023/09/02 12:53:55;;;;;;;;;;;22.30;58.80;;;;;;4859761;29;45150;-45
2023/09/02 12:56:21;;;;;;;;;;;22.30;58.80;;;;;;4851434;29;45637;-46
2023/09/02 12:58:46;;;;;;;;;;;22.30;58.90;;;;;;4866057;29;46959;-46
2023/09/02 13:01:12;;;;;;;;;;;22.30;58.80;;;;;;4822113;29;45949;-46
2023/09/02 13:03:37;;;;;;;;;;;22.30;58.90;;;;;;4846812;29;45783;-46
2023/09/02 13:06:03;;;;;;;;;;;22.30;58.90;;;;;;4847181;29;45254;-46
2023/09/02 13:08:28;;;;;;;;;;;22.30;58.90;;;;;;4859765;29;45433;-47
2023/09/02 13:10:55;;;;;;;;;;;22.20;58.90;;;;;;4847165;29;45369;-47
2023/09/02 13:13:20;;;;;;;;;;;22.30;58.90;;;;;;4857556;29;45536;-47
2023/09/02 13:15:45;;;;;;;;;;;22.30;58.90;;;;;;4828025;29;45943;-45
2023/09/02 13:18:11;;;;;;;;;;;22.30;58.90;;;;;;4858436;29;45669;-45
2023/09/02 13:20:36;;;;;;;;;;;22.30;58.90;;;;;;4853571;29;44973;-46
2023/09/02 13:23:03;;;;;;;;;;;22.30;58.90;;;;;;4855831;29;44808;-44
2023/09/02 13:25:28;;;;;;;;;;;22.30;58.90;;;;;;4841681;29;45386;-45
2023/09/02 13:27:54;;;;;;;;;;;22.30;58.90;;;;;;4863444;29;45323;-46
2023/09/02 13:30:20;;;;;;;;;;;22.30;58.90;;;;;;4845192;29;46464;-45
2023/09/02 13:32:46;;;;;;;;;;;22.30;58.90;;;;;;4840869;29;45981;-47
2023/09/02 13:35:15;;;;;;;;;;;22.30;58.90;;;;;;4847472;29;45736;-46
2023/09/02 13:37:44;;;;;;;;;;;22.30;58.90;;;;;;4857327;29;45505;-45
2023/09/02 13:40:10;;;;;;;;;;;22.30;58.90;;;;;;4877294;23;44976;-47
2023/09/02 13:42:35;;;;;;;;;;;22.30;58.90;;;;;;4887736;28;45025;-46
2023/09/02 13:45:08;;;;;;;;;;;22.30;58.90;;;;;;4886783;28;45461;-44
2023/09/02 13:47:33;;;;;;;;;;;22.30;59.20;;;;;;4851784;29;46966;-45
2023/09/02 13:49:58;;;;;;;;;;;22.30;59.00;;;;;;4862803;28;44992;-48
2023/09/02 13:52:24;;;;;;;;;;;22.30;58.90;;;;;;4879528;28;45010;-45
2023/09/02 13:54:52;;;;;;;;;;;22.30;58.90;;;;;;4888735;28;45161;-46
2023/09/02 13:57:18;;;;;;;;;;;22.30;58.90;;;;;;4866783;28;46242;-45
2023/09/02 13:59:43;;;;;;;;;;;22.30;59.00;;;;;;4867757;28;45851;-47
2023/09/02 14:02:11;;;;;;;;;;;22.30;58.90;;;;;;4860635;28;45734;-45
2023/09/02 14:04:37;;;;;;;;;;;22.30;59.00;;;;;;4885758;28;44667;-47
2023/09/02 14:07:02;;;;;;;;;;;22.30;59.00;;;;;;4865230;28;47073;-45
2023/09/02 14:09:28;;;;;;;;;;;22.30;59.00;;;;;;4871360;28;46069;-46
2023/09/02 14:11:53;;;;;;;;;;;22.30;59.00;;;;;;4883184;28;45227;-45
2023/09/02 14:14:20;;;;;;;;;;;22.30;59.00;;;;;;4866272;28;45658;-46
2023/09/02 14:16:46;;;;;;;;;;;22.30;59.00;;;;;;4851136;28;45792;-46
2023/09/02 14:19:11;;;;;;;;;;;22.30;59.00;;;;;;4880031;28;47034;-46
2023/09/02 14:21:37;;;;;;;;;;;22.30;59.00;;;;;;4880168;28;45264;-46
2023/09/02 14:24:02;;;;;;;;;;;22.30;59.00;;;;;;4868243;28;44948;-45
2023/09/02 14:26:30;;;;;;;;;;;22.30;59.00;;;;;;4870765;28;45414;-46
2023/09/02 14:28:56;;;;;;;;;;;22.30;59.00;;;;;;4880737;28;45352;-46
2023/09/02 14:31:21;;;;;;;;;;;22.30;59.00;;;;;;4858755;28;45972;-46
2023/09/02 14:33:47;;;;;;;;;;;22.30;59.00;;;;;;4873368;28;45123;-45
2023/09/02 14:36:12;;;;;;;;;;;22.30;59.00;;;;;;4866493;28;45762;-48
2023/09/02 14:38:37;;;;;;;;;;;22.30;59.00;;;;;;4880646;28;46780;-44
2023/09/02 14:41:03;;;;;;;;;;;22.30;59.00;;;;;;4870438;28;45615;-46
2023/09/02 14:43:28;;;;;;;;;;;22.30;59.00;;;;;;4888382;28;45225;-47
2023/09/02 14:45:55;;;;;;;;;;;22.30;59.00;;;;;;4872031;28;45542;-47
2023/09/02 14:48:20;;;;;;;;;;;22.30;59.00;;;;;;4872874;28;45320;-46
2023/09/02 14:50:46;;;;;;;;;;;22.30;59.00;;;;;;4828248;29;46606;-50
2023/09/02 14:53:11;;;;;;;;;;;22.30;59.10;;;;;;4878694;28;45321;-45
2023/09/02 14:55:37;;;;;;;;;;;22.30;59.00;;;;;;4857816;29;45292;-47
2023/09/02 14:58:03;;;;;;;;;;;22.30;59.10;;;;;;4862681;28;47168;-48
2023/09/02 15:00:29;;;;;;;;;;;22.30;59.00;;;;;;4825972;28;45286;-47
2023/09/02 15:02:55;;;;;;;;;;;22.30;59.10;;;;;;4849057;28;46183;-49
2023/09/02 15:05:26;;;;;;;;;;;22.30;59.00;;;;;;4870051;28;45780;-45
2023/09/02 15:07:57;;;;;;;;;;;22.30;59.00;;;;;;4846827;28;47678;-46
2023/09/02 15:10:23;;;;;;;;;;;22.30;59.10;;;;;;4871858;28;45332;-48
2023/09/02 15:12:50;;;;;;;;;;;22.30;59.10;;;;;;4883205;28;45283;-49
2023/09/02 15:15:15;;;;;;;;;;;22.30;59.10;;;;;;4868179;28;45200;-47
2023/09/02 15:17:41;;;;;;;;;;;22.30;59.10;;;;;;4877422;28;46992;-45
2023/09/02 15:20:07;;;;;;;;;;;22.30;59.10;;;;;;4869167;28;45494;-51
2023/09/02 15:22:33;;;;;;;;;;;22.30;59.10;;;;;;4883381;28;47143;-47
2023/09/02 15:24:58;;;;;;;;;;;22.30;59.10;;;;;;4885392;28;45377;-47
2023/09/02 15:27:25;;;;;;;;;;;22.30;59.10;;;;;;4870832;28;45546;-47
2023/09/02 15:29:51;;;;;;;;;;;22.30;59.10;;;;;;4854486;28;46213;-46
2023/09/02 15:32:16;;;;;;;;;;;22.30;59.10;;;;;;4833639;28;45690;-46
2023/09/02 15:34:46;;;;;;;;;;;22.30;59.10;;;;;;4878306;28;45684;-46
2023/09/02 15:37:32;;;;;;;;;;;22.30;59.10;;;;;;4871315;28;45199;-48
2023/09/02 15:40:02;;;;;;;;;;;22.30;59.10;;;;;;4874852;28;46129;-45
2023/09/02 15:42:30;;;;;;;;;;;22.30;59.10;;;;;;4854208;28;45554;-47
2023/09/02 15:44:55;;;;;;;;;;;22.30;59.10;;;;;;4880082;28;44968;-46
2023/09/02 15:47:21;;;;;;;;;;;22.30;59.20;;;;;;4860956;28;45547;-47
2023/09/02 15:49:46;;;;;;;;;;;22.30;59.10;;;;;;4880823;28;45552;-46
2023/09/02 15:52:12;;;;;;;;;;;22.30;59.10;;;;;;4834957;28;45665;-45
2023/09/02 15:54:37;;;;;;;;;;;22.30;59.20;;;;;;4864786;28;46565;-48
2023/09/02 15:57:04;;;;;;;;;;;22.30;59.10;;;;;;4862098;28;45317;-46
2023/09/02 15:59:30;;;;;;;;;;;22.30;59.20;;;;;;4870643;28;45176;-48
2023/09/02 16:01:55;;;;;;;;;;;22.30;59.10;;;;;;4859469;28;45878;-46
2023/09/02 16:04:20;;;;;;;;;;;22.30;59.10;;;;;;4868321;28;45660;-46
2023/09/02 16:06:46;;;;;;;;;;;22.30;59.20;;;;;;4861671;28;45967;-50
2023/09/02 16:09:11;;;;;;;;;;;22.30;59.10;;;;;;4879787;28;45257;-45
2023/09/02 16:11:37;;;;;;;;;;;22.30;59.20;;;;;;4875967;28;45333;-46
2023/09/02 16:14:02;;;;;;;;;;;22.30;59.10;;;;;;4882287;28;45867;-46
2023/09/02 16:16:28;;;;;;;;;;;22.40;59.20;;;;;;4862538;28;45166;-47
2023/09/02 16:18:53;;;;;;;;;;;22.30;59.20;;;;;;4868601;28;46598;-50
2023/09/02 16:21:19;;;;;;;;;;;22.30;59.10;;;;;;4865696;28;45313;-46
2023/09/02 16:23:44;;;;;;;;;;;22.40;59.20;;;;;;4882419;28;46059;-47
2023/09/02 16:26:10;;;;;;;;;;;22.40;59.30;;;;;;4870283;28;46129;-46
2023/09/02 16:28:35;;;;;;;;;;;22.40;59.20;;;;;;4878327;28;45567;-47
2023/09/02 16:31:01;;;;;;;;;;;22.40;59.20;;;;;;4864174;28;45131;-47
2023/09/02 16:33:27;;;;;;;;;;;22.40;59.20;;;;;;4877123;28;45516;-48
2023/09/02 16:35:54;;;;;;;;;;;22.40;59.20;;;;;;4869473;28;45274;-48
2023/09/02 16:38:19;;;;;;;;;;;22.40;59.30;;;;;;4880397;28;45253;-46
2023/09/02 16:40:45;;;;;;;;;;;22.40;59.20;;;;;;4872467;28;45126;-46
2023/09/02 16:43:11;;;;;;;;;;;22.40;59.20;;;;;;4881266;28;47005;-47
2023/09/02 16:45:36;;;;;;;;;;;22.40;59.20;;;;;;4847068;28;45450;-47
2023/09/02 16:48:06;;;;;;;;;;;22.40;59.20;;;;;;4865694;28;45841;-46
2023/09/02 16:50:31;;;;;;;;;;;22.40;59.80;;;;;;4869187;28;45237;-46
2023/09/02 16:52:57;;;;;;;;;;;22.40;59.20;;;;;;4866637;28;45478;-46
2023/09/02 16:55:27;;;;;;;;;;;22.40;59.20;;;;;;4849596;28;46174;-46
2023/09/02 16:57:54;;;;;;;;;;;22.40;59.20;;;;;;4870066;28;45406;-47
2023/09/02 17:00:20;;;;;;;;;;;22.40;59.20;;;;;;4862151;28;45290;-50
2023/09/02 17:02:49;;;;;;;;;;;22.40;59.30;;;;;;4871146;28;45687;-45
2023/09/02 17:05:16;;;;;;;;;;;22.40;59.20;;;;;;4871156;28;45493;-47
2023/09/02 17:07:42;;;;;;;;;;;22.40;59.20;;;;;;4871186;28;45186;-47
2023/09/02 17:10:08;;;;;;;;;;;22.40;59.20;;;;;;4873561;28;45582;-46
2023/09/02 17:12:38;;;;;;;;;;;22.40;59.20;;;;;;4876682;28;45561;-47